Meteo Giornale » Osservazioni meteo Stati Uniti (USA) » Henderson City
ore: 23:56 - Osservazioni Meteo Henderson City
Lat. 37° 49' N Lon. 87° 41' W Alt. 117 metri s.l.m.
23 °C
Sereno
Temp. 24 Ore
22 °C
36 °C
Nord
5.5 Km/h
Dew point 21 °C
Umidità 88 %
Visibilità 10 Km
Il sole sorge alle ore 06:20
Il sole tramonta alle ore 19:20
| Data e Ora | Cielo e Fenomeni | T °C | DP °C | Um. % | Pres. hPa | Vis. km | Vento km/h | |
|---|---|---|---|---|---|---|---|---|
| Ieri h: 23:56 | Sereno | 23 | 21 | 88 | 1017 | 10 | N 5.5 | |
| Ieri h: 22:56 | Sereno | 22 | 21 | 94 | 1018 | 10 | S 7.4 | |
| Ieri h: 21:56 | Sereno | 23 | 21 | 88 | 1018 | 10 | N 5.5 | |
| Ieri h: 20:56 | Sereno | 23 | 21 | 88 | 1017 | 10 | S 7.4 | |
| Ieri h: 19:56 | Sereno | 26 | 21 | 73 | 1017 | 10 | N 0 | |
| Ieri h: 18:56 | Sereno | 32 | 20 | 49 | 1016 | 10 | S/SO 9.3 | |
| Ieri h: 17:56 | Sereno | 34 | 20 | 43 | 1017 | 10 | S/SO 14.8 | |
| Ieri h: 16:56 | Poco Nuvoloso | 36 | 20 | 39 | 1017 | 10 | S/SO 14.8 | |
| Ieri h: 15:56 | Poco Nuvoloso | 36 | 20 | 39 | 1017 | 10 | S 11.1 | |
| Ieri h: 14:56 | Poco Nuvoloso | 36 | 20 | 39 | 1018 | 10 | S/SO 14.8 | |
| Ieri h: 13:56 | Sereno | 34 | 21 | 46 | 1018 | 10 | SO 13 | |
| Ieri h: 12:56 | Poco Nuvoloso | 35 | 21 | 44 | 1019 | 10 | SO 13 | |
| Ieri h: 11:56 | Sereno | 35 | 21 | 44 | 1019 | 10 | S/SO 16.7 | |
| Ieri h: 10:56 | Sereno | 33 | 22 | 52 | 1020 | 10 | SO 20.3 | |
| Ieri h: 09:56 | Sereno | 32 | 22 | 55 | 1020 | 10 | SO 14.8 | |
| Ieri h: 08:56 | Sereno | 29 | 22 | 66 | 1019 | 10 | S/SO 13 | |
| Ieri h: 07:56 | Sereno | 27 | 22 | 74 | 1019 | 10 | S/SO 11.1 | |
| Ieri h: 06:56 | Sereno | 23 | 22 | 94 | 1018 | 10 | S/SO 9.3 | |
| Ieri h: 05:56 | Sereno | 22 | 21 | 94 | 1018 | 10 | N 5.5 | |
| Ieri h: 04:56 | Sereno | 22 | 21 | 94 | 1017 | 10 | S/SO 7.4 | |
| Ieri h: 03:56 | Sereno | 22 | 21 | 94 | 1018 | 10 | N 0 | |
| Ieri h: 02:56 | Sereno | 22 | 21 | 94 | 1017 | 10 | N 5.5 | |
| Ieri h: 01:56 | Sereno | 22 | 20 | 88 | 1017 | 10 | N 5.5 | |
| Ieri h: 00:56 | Sereno | 22 | 20 | 88 | 1018 | 10 | N 5.5 | |



